Kezdőlap
METAR-TAF:

METAR-TAF

Repülőterek :

Georgetown, Ascension-sziget

földrajzi szélesség: 07-58S, földrajzi hosszúság: 014-24W, magasság: 86 m

Jelenlegi meteorológiai megfigyelések

A jelentés 14 perccel ezelõtt készült, 09:50 UTC
Kelet-délkeleti szél 13 kt
Hőmérséklet 26°C
Páratartalom 74%
Légköri nyomás 1014 hPa
Látótávolság 10 km, vagy több
Kevés felhő 1800 lábon
Szakadozott felhőzet 6000 lábon

METAR: FHAW 220950Z 12013KT 9999 FEW018 BKN060 26/21 Q1014 BLU NOSIG

Idő: 10:04 (10:04 UTC)

Előrejelzés

A jelentés 2 órával és 34 perccel ezelõtt készült, 07:30 UTC
Az előrejelzés 22-én 09 óra UTC és 23-én 03 óra UTC között érvényes
Délkeleti szél 13 kt
Látótávolság 10 km, vagy több
Kevés felhő 1800 lábon
Szakadozott felhőzet 4500 lábon
Valószínűség 30% :
22-én 09 óra UTC és 23-én 03 óra UTC között ideiglenes
Szórványos felhőzet 1500 lábon

TAF: FHAW 220730Z 2209/2303 13013KT 9999 FEW018 BKN045 PROB30 TEMPO 2209/2303 SCT015

Meteorológiai megfigyelések és előrejelzések több, mint 4000 repülőtéren (METAR és TAF jelentéseket).

A térképen piros és sárga pontok jelzik az elérhető meteorológiai állomásokat.

Mozgassa az egeret a pont fölött, hogy megjelenjen az állomás neve.

Azután kattintson az időjárási megfigyelések és előrejelzések megtekintéséhez.

A térkép megváltoztatása: kattintson a fekete keresztel jelölt zöld gombra ráközelítéshez, a vonallal jelölt zöld gombra távolításhoz, vagy a zöld nyilakra a szomszédos térképek eléréséhez.


METAR-TAF: